createdAt,value
2022-11-20T00:02:13.130Z,101054.09
2022-11-20T00:04:45.785Z,101061.75
2022-11-20T00:07:18.450Z,101052.97
2022-11-20T00:09:50.988Z,101052.78
2022-11-20T00:12:23.489Z,101053.50
2022-11-20T00:14:56.015Z,101054.22
2022-11-20T00:17:28.563Z,101054.09
2022-11-20T00:20:01.171Z,101052.22
2022-11-20T00:22:33.723Z,101057.22
2022-11-20T00:25:06.475Z,101051.75
2022-11-20T00:27:39.097Z,101043.16
2022-11-20T00:30:14.993Z,101045.53
2022-11-20T00:32:47.848Z,101046.44
2022-11-20T00:35:20.362Z,101048.91
2022-11-20T00:37:52.872Z,101042.78
2022-11-20T00:40:25.327Z,101041.81
2022-11-20T00:42:57.902Z,101048.50
2022-11-20T00:45:30.380Z,101044.25
2022-11-20T00:48:02.861Z,101039.84
2022-11-20T00:50:35.456Z,101053.44
2022-11-20T00:53:08.197Z,101048.44
2022-11-20T00:55:40.768Z,101037.13
2022-11-20T00:58:14.508Z,101040.50
2022-11-20T01:00:47.192Z,101042.19
2022-11-20T01:03:25.724Z,101035.97
2022-11-20T01:06:06.873Z,101035.94
2022-11-20T01:08:39.995Z,101037.72
2022-11-20T01:11:19.904Z,101039.19
2022-11-20T01:13:54.544Z,101044.38
2022-11-20T01:16:37.277Z,101039.94
2022-11-20T01:19:21.307Z,101041.53
2022-11-20T01:21:55.276Z,101046.59
2022-11-20T01:24:27.817Z,101054.38
2022-11-20T01:27:00.303Z,101046.66
2022-11-20T01:29:32.799Z,101057.97
2022-11-20T01:32:05.542Z,101046.97
2022-11-20T01:34:38.034Z,101034.28
2022-11-20T01:37:10.494Z,101036.19
2022-11-20T01:39:43.045Z,101032.09
2022-11-20T01:42:34.069Z,101033.97
2022-11-20T01:45:47.455Z,101041.75
2022-11-20T01:48:24.419Z,101044.31
2022-11-20T01:50:59.675Z,101026.06
2022-11-20T01:53:38.253Z,101039.00
2022-11-20T01:56:14.911Z,101044.59
2022-11-20T01:58:56.751Z,101047.41
2022-11-20T02:01:29.614Z,101041.44
2022-11-20T02:04:03.649Z,101031.84
2022-11-20T02:06:44.547Z,101025.81
2022-11-20T02:09:18.207Z,101034.59
2022-11-20T02:11:50.970Z,101031.94
2022-11-20T02:14:25.556Z,101036.31
2022-11-20T02:16:58.462Z,101024.03
2022-11-20T02:19:32.762Z,101023.25
2022-11-20T02:22:22.283Z,101029.34
2022-11-20T02:24:54.900Z,101018.97
2022-11-20T02:27:28.289Z,101026.41
2022-11-20T02:30:11.836Z,101022.88
2022-11-20T02:32:44.408Z,101025.50
2022-11-20T02:35:19.627Z,101018.88
2022-11-20T02:37:56.366Z,101022.44
2022-11-20T02:40:29.355Z,101018.97
2022-11-20T02:43:01.855Z,101019.72
2022-11-20T02:45:34.661Z,101023.00
2022-11-20T02:48:08.472Z,101031.22
2022-11-20T02:50:41.436Z,101017.88
2022-11-20T02:53:13.924Z,101032.53
2022-11-20T02:55:46.516Z,101013.25
2022-11-20T02:58:19.054Z,101015.28
2022-11-20T03:00:52.799Z,101009.47
2022-11-20T03:03:25.306Z,101011.31
2022-11-20T03:06:00.348Z,101006.63
2022-11-20T03:08:33.176Z,101008.84
2022-11-20T03:11:08.115Z,101014.59
2022-11-20T03:13:40.725Z,101011.38
2022-11-20T03:16:23.013Z,101003.56
2022-11-20T03:18:55.501Z,101002.97
2022-11-20T03:21:28.053Z,100995.41
2022-11-20T03:24:01.143Z,100998.13
2022-11-20T03:26:33.640Z,101004.91
2022-11-20T03:29:06.497Z,101004.28
2022-11-20T03:31:41.691Z,100994.06
2022-11-20T03:34:14.478Z,100992.31
2022-11-20T03:36:47.051Z,100993.91
2022-11-20T03:39:19.858Z,100987.28
2022-11-20T03:41:52.619Z,100979.94
2022-11-20T03:44:25.105Z,100967.31
2022-11-20T03:46:58.041Z,100973.19
2022-11-20T03:49:31.576Z,100969.81
2022-11-20T03:52:04.207Z,100968.00
2022-11-20T03:54:36.648Z,100976.38
2022-11-20T03:57:09.130Z,100960.25
2022-11-20T03:59:41.632Z,100961.19
2022-11-20T04:02:14.376Z,100959.25
2022-11-20T04:04:47.107Z,100966.03
2022-11-20T04:07:19.611Z,100959.81
2022-11-20T04:09:52.136Z,100955.41
2022-11-20T04:12:24.689Z,100954.56
2022-11-20T04:14:57.153Z,100952.59
2022-11-20T04:17:29.696Z,100959.69
2022-11-20T04:20:03.372Z,100961.47
2022-11-20T04:22:35.896Z,100957.16
2022-11-20T04:25:09.261Z,100958.03
2022-11-20T04:27:41.842Z,100954.91
2022-11-20T04:30:14.621Z,100952.81
2022-11-20T04:32:47.111Z,100955.59
2022-11-20T04:35:19.645Z,100951.91
2022-11-20T04:37:53.391Z,100956.38
2022-11-20T04:40:25.851Z,100954.66
2022-11-20T04:42:58.369Z,100955.50
2022-11-20T04:45:30.857Z,100948.66
2022-11-20T04:48:03.596Z,100948.63
2022-11-20T04:50:41.866Z,100948.63
2022-11-20T04:53:16.147Z,100938.25
2022-11-20T04:55:49.281Z,100945.31
2022-11-20T04:58:23.212Z,100944.28
2022-11-20T05:01:13.368Z,100936.50
2022-11-20T05:03:46.746Z,100940.94
2022-11-20T05:06:22.193Z,100943.44
2022-11-20T05:08:54.726Z,100930.38
2022-11-20T05:11:29.969Z,100930.47
2022-11-20T05:14:02.469Z,100930.34
2022-11-20T05:16:36.980Z,100924.16
2022-11-20T05:19:09.792Z,100921.56
2022-11-20T05:21:42.450Z,100914.16
2022-11-20T05:24:14.971Z,100910.94
2022-11-20T05:26:47.505Z,100904.81
2022-11-20T05:29:20.322Z,100912.47
2022-11-20T05:31:53.092Z,100910.84
2022-11-20T05:34:25.611Z,100912.75
2022-11-20T05:36:58.155Z,100911.84
2022-11-20T05:39:30.715Z,100908.34
2022-11-20T05:42:21.801Z,100909.56
2022-11-20T05:44:54.380Z,100911.44
2022-11-20T05:47:29.200Z,100913.38
2022-11-20T05:50:02.511Z,100923.88
2022-11-20T05:52:35.190Z,100922.22
2022-11-20T05:55:08.746Z,100933.69
2022-11-20T05:57:41.265Z,100936.31
2022-11-20T06:00:14.718Z,100937.25
2022-11-20T06:02:47.516Z,100937.50
2022-11-20T06:05:20.107Z,100940.19
2022-11-20T06:07:52.652Z,100948.00
2022-11-20T06:10:25.180Z,100943.81
2022-11-20T06:13:00.872Z,100934.50
2022-11-20T06:15:33.357Z,100946.75
2022-11-20T06:18:05.933Z,100936.59
2022-11-20T06:20:42.051Z,100933.22
2022-11-20T06:23:14.866Z,100937.72
2022-11-20T06:25:47.366Z,100930.03
2022-11-20T06:28:19.888Z,100929.25
2022-11-20T06:30:52.393Z,100930.94
2022-11-20T06:33:24.990Z,100933.69
2022-11-20T06:36:01.022Z,100933.78
2022-11-20T06:38:35.104Z,100921.56
2022-11-20T06:41:18.002Z,100925.97
2022-11-20T06:43:51.199Z,100915.72
2022-11-20T06:46:23.794Z,100920.09
2022-11-20T06:48:56.369Z,100920.16
2022-11-20T06:51:28.916Z,100916.72
2022-11-20T06:54:02.028Z,100909.00
2022-11-20T06:56:34.560Z,100915.72
2022-11-20T06:59:08.129Z,100924.47
2022-11-20T07:01:40.692Z,100925.31
2022-11-20T07:04:13.148Z,100915.88
2022-11-20T07:06:45.622Z,100925.53
2022-11-20T07:09:18.062Z,100923.91
2022-11-20T07:11:50.590Z,100913.41
2022-11-20T07:14:23.213Z,100913.41
2022-11-20T07:16:56.062Z,100914.19
2022-11-20T07:19:28.574Z,100910.03
2022-11-20T07:22:01.059Z,100913.47
2022-11-20T07:24:33.585Z,100907.38
2022-11-20T07:27:06.583Z,100907.44
2022-11-20T07:29:39.105Z,100913.66
2022-11-20T07:32:11.629Z,100907.63
2022-11-20T07:34:44.273Z,100905.88
2022-11-20T07:37:17.256Z,100901.59
2022-11-20T07:39:49.714Z,100899.00
2022-11-20T07:42:22.252Z,100903.28
2022-11-20T07:44:54.720Z,100900.44
2022-11-20T07:47:27.236Z,100908.56
2022-11-20T07:49:59.701Z,100896.53
2022-11-20T07:52:32.249Z,100901.00
2022-11-20T07:55:06.072Z,100901.03
2022-11-20T07:57:39.041Z,100905.59
2022-11-20T08:00:12.961Z,100898.66
2022-11-20T08:02:45.477Z,100904.03
2022-11-20T08:05:18.144Z,100904.38
2022-11-20T08:07:50.692Z,100906.22
2022-11-20T08:10:23.265Z,100900.22
2022-11-20T08:13:14.505Z,100896.09
2022-11-20T08:15:54.025Z,100899.72
2022-11-20T08:18:31.606Z,100901.50
2022-11-20T08:21:05.950Z,100901.66
2022-11-20T08:23:38.492Z,100896.59
2022-11-20T08:26:11.251Z,100904.09
2022-11-20T08:28:44.272Z,100909.66
2022-11-20T08:31:16.807Z,100904.56
2022-11-20T08:33:49.513Z,100903.72
2022-11-20T08:36:24.323Z,100903.63
2022-11-20T08:38:57.084Z,100902.72
2022-11-20T08:41:34.032Z,100896.09
2022-11-20T08:44:08.879Z,100894.28
2022-11-20T08:46:44.427Z,100891.69
2022-11-20T08:49:17.077Z,100892.75
2022-11-20T08:51:52.658Z,100889.00
2022-11-20T08:54:25.180Z,100892.84
2022-11-20T08:56:57.775Z,100886.94
2022-11-20T08:59:58.652Z,100897.25
2022-11-20T09:02:24.264Z,100881.97
2022-11-20T09:04:57.647Z,100883.69
2022-11-20T09:07:31.120Z,100885.44
2022-11-20T09:10:23.162Z,100885.53
2022-11-20T09:12:57.253Z,100891.91
2022-11-20T09:15:29.775Z,100885.78
2022-11-20T09:18:05.695Z,100882.53
2022-11-20T09:20:38.328Z,100872.91
2022-11-20T09:23:10.885Z,100873.66
2022-11-20T09:25:44.108Z,100863.28
2022-11-20T09:28:17.441Z,100865.13
2022-11-20T09:30:49.945Z,100856.50
2022-11-20T09:33:22.491Z,100861.72
2022-11-20T09:35:54.936Z,100852.38
2022-11-20T09:38:27.589Z,100850.56
2022-11-20T09:41:06.932Z,100845.28
2022-11-20T09:44:36.627Z,100840.28
2022-11-20T09:47:44.724Z,100840.31
2022-11-20T09:50:39.096Z,100836.03
2022-11-20T09:53:52.589Z,100834.31
2022-11-20T09:56:26.847Z,100843.06
2022-11-20T09:59:07.464Z,100825.56
2022-11-20T10:01:41.650Z,100819.47
2022-11-20T10:04:19.107Z,100816.94
2022-11-20T10:07:36.015Z,100808.28
2022-11-20T10:10:22.602Z,100800.38
2022-11-20T10:13:16.767Z,100799.44
2022-11-20T10:16:18.655Z,100782.88
2022-11-20T10:19:11.685Z,100768.19
2022-11-20T10:22:05.887Z,100759.50
2022-11-20T10:25:01.500Z,100757.72
2022-11-20T10:27:37.083Z,100756.91
2022-11-20T10:30:17.422Z,100756.97
2022-11-20T10:32:59.564Z,100764.00
2022-11-20T10:35:44.981Z,100745.59
2022-11-20T10:38:39.160Z,100742.09
2022-11-20T10:41:26.986Z,100729.09
2022-11-20T10:44:10.779Z,100715.09
2022-11-20T10:46:46.276Z,100725.63
2022-11-20T10:49:21.369Z,100719.44
2022-11-20T10:52:16.379Z,100715.09
2022-11-20T10:55:30.872Z,100710.78
2022-11-20T10:58:40.635Z,100700.31
2022-11-20T11:01:22.589Z,100691.59
2022-11-20T11:03:58.097Z,100689.84
2022-11-20T11:06:47.703Z,100689.81
2022-11-20T11:09:40.527Z,100688.06
2022-11-20T11:12:13.553Z,100688.09
2022-11-20T11:14:55.180Z,100689.81
2022-11-20T11:17:34.104Z,100682.81
2022-11-20T11:20:18.208Z,100679.31
2022-11-20T11:22:57.522Z,100682.81
2022-11-20T11:25:36.755Z,100687.19
2022-11-20T11:28:18.289Z,100679.31
2022-11-20T11:30:50.974Z,100672.34
2022-11-20T11:33:36.838Z,100668.81
2022-11-20T11:36:27.460Z,100669.72
2022-11-20T11:39:00.169Z,100658.34
2022-11-20T11:41:38.232Z,100662.69
2022-11-20T11:44:40.645Z,100649.59
2022-11-20T11:47:26.277Z,100648.72
2022-11-20T11:50:27.428Z,100646.09
2022-11-20T11:53:18.554Z,100630.38
2022-11-20T11:56:04.893Z,100638.22
2022-11-20T11:58:49.265Z,100628.59
2022-11-20T12:01:35.456Z,100619.84
2022-11-20T12:04:27.908Z,100609.34
2022-11-20T12:07:46.128Z,100606.72
2022-11-20T12:10:39.015Z,100581.34
2022-11-20T12:13:42.374Z,100572.56
2022-11-20T12:16:20.262Z,100576.94
2022-11-20T12:18:54.146Z,100556.75
2022-11-20T12:21:37.038Z,100551.50
2022-11-20T12:24:47.028Z,100551.44
2022-11-20T12:27:45.319Z,100540.03
2022-11-20T12:30:21.526Z,100535.72
2022-11-20T12:33:23.748Z,100541.78
2022-11-20T12:36:24.245Z,100542.72
2022-11-20T12:39:22.030Z,100531.19
2022-11-20T12:42:32.024Z,100529.53
2022-11-20T12:45:29.541Z,100520.75
2022-11-20T12:48:46.421Z,100514.53
2022-11-20T12:51:37.977Z,100512.66
2022-11-20T12:55:08.947Z,100494.34
2022-11-20T12:57:58.124Z,100475.03
2022-11-20T13:00:32.616Z,100466.13
2022-11-20T13:03:40.069Z,100464.38
2022-11-20T13:06:19.850Z,100458.28
2022-11-20T13:08:56.993Z,100453.81
2022-11-20T13:12:11.787Z,100445.84
2022-11-20T13:15:02.500Z,100433.56
2022-11-20T13:17:52.075Z,100439.78
2022-11-20T13:20:24.969Z,100424.91
2022-11-20T13:22:59.627Z,100424.06
2022-11-20T13:25:39.452Z,100416.31
2022-11-20T13:28:11.847Z,100416.94
2022-11-20T13:30:54.651Z,100418.75
2022-11-20T13:33:36.427Z,100405.63
2022-11-20T13:36:26.952Z,100402.19
2022-11-20T13:39:00.287Z,100397.72
2022-11-20T13:41:40.400Z,100389.69
2022-11-20T13:44:39.172Z,100388.06
2022-11-20T13:47:29.989Z,100376.69
2022-11-20T13:50:09.650Z,100377.44
2022-11-20T13:53:30.757Z,100369.63
2022-11-20T13:56:38.764Z,100373.00
2022-11-20T13:59:52.157Z,100366.00
2022-11-20T14:02:30.769Z,100363.41
2022-11-20T14:05:06.417Z,100352.03
2022-11-20T14:07:43.555Z,100350.34
2022-11-20T14:10:32.398Z,100337.34
2022-11-20T14:13:19.819Z,100334.50
2022-11-20T14:15:58.853Z,100331.94
2022-11-20T14:18:31.384Z,100318.88
2022-11-20T14:21:05.164Z,100323.25
2022-11-20T14:23:39.884Z,100324.00
2022-11-20T14:26:21.262Z,100320.44
2022-11-20T14:28:55.095Z,100321.28
2022-11-20T14:31:29.604Z,100311.78
2022-11-20T14:34:03.885Z,100310.34
2022-11-20T14:36:39.399Z,100305.03
2022-11-20T14:39:22.250Z,100312.81
2022-11-20T14:41:55.472Z,100300.56
2022-11-20T14:44:38.845Z,100305.84
2022-11-20T14:47:16.557Z,100296.28
2022-11-20T14:49:52.793Z,100283.22
2022-11-20T14:52:28.620Z,100273.59
2022-11-20T14:55:01.424Z,100261.28
2022-11-20T14:57:37.068Z,100255.19
2022-11-20T15:00:21.747Z,100249.06
2022-11-20T15:02:55.122Z,100229.81
2022-11-20T15:05:49.608Z,100226.28
2022-11-20T15:08:22.228Z,100223.75
2022-11-20T15:10:56.697Z,100215.78
2022-11-20T15:13:37.712Z,100211.41
2022-11-20T15:16:20.425Z,100210.47
2022-11-20T15:18:53.068Z,100208.69
2022-11-20T15:21:25.661Z,100200.75
2022-11-20T15:23:58.396Z,100196.53
2022-11-20T15:26:30.965Z,100190.25
2022-11-20T15:29:03.586Z,100185.13
2022-11-20T15:31:36.136Z,100186.81
2022-11-20T15:34:16.245Z,100184.09
2022-11-20T15:36:48.691Z,100170.09
2022-11-20T15:39:21.926Z,100156.94
2022-11-20T15:41:54.406Z,100160.41
2022-11-20T15:44:27.093Z,100154.41
2022-11-20T15:47:00.001Z,100147.34
2022-11-20T15:49:32.580Z,100145.63
2022-11-20T15:52:05.230Z,100141.13
2022-11-20T15:54:37.803Z,100133.25
2022-11-20T15:57:10.333Z,100133.28
2022-11-20T15:59:43.006Z,100117.44
2022-11-20T16:05:03.913Z,100118.41
2022-11-20T16:07:36.459Z,100121.91
2022-11-20T16:10:09.697Z,100108.81
2022-11-20T16:13:01.212Z,100109.50
2022-11-20T16:15:46.335Z,100105.13
2022-11-20T16:18:21.944Z,100094.53
2022-11-20T16:20:56.049Z,100100.59
2022-11-20T16:23:29.368Z,100094.47
2022-11-20T16:26:14.564Z,100092.59
2022-11-20T16:28:47.710Z,100089.97
2022-11-20T16:31:21.840Z,100082.00
2022-11-20T16:33:57.825Z,100080.25
2022-11-20T16:36:30.946Z,100084.47
2022-11-20T16:39:04.601Z,100073.09
2022-11-20T16:41:49.273Z,100072.31
2022-11-20T16:44:26.228Z,100072.06
2022-11-20T16:46:58.958Z,100066.66
2022-11-20T16:49:33.238Z,100061.38
2022-11-20T16:52:05.849Z,100050.19
2022-11-20T16:54:38.367Z,100045.66
2022-11-20T16:57:10.948Z,100038.47
2022-11-20T16:59:43.604Z,100024.38
2022-11-20T17:02:16.510Z,100021.03
2022-11-20T17:04:49.017Z,100012.16
2022-11-20T17:07:21.656Z,100016.34
2022-11-20T17:09:54.615Z,100012.09
2022-11-20T17:12:28.899Z,100010.22
2022-11-20T17:15:07.362Z,100006.75
2022-11-20T17:17:40.056Z,100002.22
2022-11-20T17:20:12.845Z,99993.28
2022-11-20T17:26:19.805Z,99975.63
2022-11-20T17:29:10.108Z,99967.06
2022-11-20T17:31:46.901Z,99962.47
2022-11-20T17:34:19.571Z,99955.19
2022-11-20T17:36:52.302Z,99951.78
2022-11-20T17:39:26.153Z,99964.72
2022-11-20T17:42:17.520Z,99958.53
2022-11-20T17:44:50.130Z,99962.63
2022-11-20T17:47:22.778Z,99969.63
2022-11-20T17:49:55.466Z,99979.06
2022-11-20T17:52:28.048Z,99984.25
2022-11-20T17:55:00.950Z,99979.88
2022-11-20T17:57:54.473Z,99993.75
2022-11-20T18:00:28.283Z,100002.66
2022-11-20T18:03:04.307Z,100001.59
2022-11-20T18:05:41.994Z,100007.81
2022-11-20T18:08:25.430Z,100015.56
2022-11-20T18:11:29.578Z,100016.41
2022-11-20T18:14:25.221Z,100036.72
2022-11-20T18:17:13.712Z,100034.75
2022-11-20T18:20:14.032Z,100050.94
2022-11-20T18:22:45.672Z,100038.34
2022-11-20T18:25:25.875Z,100037.81
2022-11-20T18:28:06.567Z,100041.00
2022-11-20T18:30:42.319Z,100051.75
2022-11-20T18:33:14.978Z,100050.03
2022-11-20T18:35:50.289Z,100061.63
2022-11-20T18:38:22.913Z,100059.75
2022-11-20T18:40:56.019Z,100057.81
2022-11-20T18:43:48.270Z,100062.38
2022-11-20T18:46:22.164Z,100057.31
2022-11-20T18:48:54.719Z,100059.00
2022-11-20T18:51:27.269Z,100061.22
2022-11-20T18:53:59.940Z,100049.09
2022-11-20T18:56:34.688Z,100059.94
2022-11-20T18:59:10.284Z,100064.59
2022-11-20T19:01:43.153Z,100063.38
2022-11-20T19:04:18.240Z,100063.50
2022-11-20T19:06:52.819Z,100070.56
2022-11-20T19:09:25.705Z,100079.50
2022-11-20T19:11:58.367Z,100083.72
2022-11-20T19:14:31.028Z,100083.81
2022-11-20T19:17:06.703Z,100075.94
2022-11-20T19:19:39.581Z,100082.13
2022-11-20T19:22:12.229Z,100087.31
2022-11-20T19:24:45.894Z,100081.47
2022-11-20T19:27:18.466Z,100090.19
2022-11-20T19:29:50.986Z,100094.63
2022-11-20T19:32:23.540Z,100086.44
2022-11-20T19:34:56.081Z,100092.84
2022-11-20T19:37:28.689Z,100101.63
2022-11-20T19:40:04.289Z,100098.25
2022-11-20T19:42:36.936Z,100106.16
2022-11-20T19:45:09.982Z,100107.69
2022-11-20T19:50:35.443Z,100100.78
2022-11-20T19:53:08.029Z,100092.69
2022-11-20T19:55:42.953Z,100092.03
2022-11-20T19:58:16.006Z,100103.53
2022-11-20T20:00:48.640Z,100094.41
2022-11-20T20:03:21.707Z,100109.38
2022-11-20T20:05:54.310Z,100099.19
2022-11-20T20:08:26.950Z,100098.31
2022-11-20T20:11:00.140Z,100101.97
2022-11-20T20:13:33.332Z,100104.75
2022-11-20T20:16:10.665Z,100118.38
2022-11-20T20:18:43.990Z,100110.56
2022-11-20T20:21:18.731Z,100119.63
2022-11-20T20:23:54.454Z,100121.19
2022-11-20T20:26:30.956Z,100131.81
2022-11-20T20:29:04.242Z,100131.63
2022-11-20T20:31:37.063Z,100134.81
2022-11-20T20:34:09.726Z,100143.84
2022-11-20T20:36:44.682Z,100139.53
2022-11-20T20:39:17.514Z,100144.50
2022-11-20T20:41:51.166Z,100133.41
2022-11-20T20:44:42.627Z,100130.78
2022-11-20T20:47:15.419Z,100123.38
2022-11-20T20:49:48.166Z,100130.63
2022-11-20T20:52:29.551Z,100126.13
2022-11-20T20:55:06.327Z,100140.22
2022-11-20T20:57:39.299Z,100152.59
2022-11-20T21:00:15.351Z,100141.22
2022-11-20T21:02:57.455Z,100155.91
2022-11-20T21:05:41.771Z,100175.72
2022-11-20T21:12:27.711Z,100159.84
2022-11-20T21:15:08.209Z,100145.78
2022-11-20T21:17:47.217Z,100149.44
2022-11-20T21:20:38.193Z,100148.38
2022-11-20T21:23:11.389Z,100161.00
2022-11-20T21:25:43.926Z,100163.97
2022-11-20T21:28:18.382Z,100159.59
2022-11-20T21:30:51.324Z,100157.31
2022-11-20T21:33:25.199Z,100162.28
2022-11-20T21:36:02.125Z,100159.66
2022-11-20T21:38:35.972Z,100172.78
2022-11-20T21:41:11.397Z,100175.72
2022-11-20T21:43:51.610Z,100173.06
2022-11-20T21:46:34.584Z,100178.97
2022-11-20T21:49:07.297Z,100188.69
2022-11-20T21:51:40.446Z,100183.19
2022-11-20T21:54:15.233Z,100177.84
2022-11-20T21:56:50.567Z,100173.34
2022-11-20T21:59:23.806Z,100167.75
2022-11-20T22:01:56.597Z,100173.72
2022-11-20T22:04:29.441Z,100172.75
2022-11-20T22:07:02.096Z,100182.63
2022-11-20T22:09:34.842Z,100170.38
2022-11-20T22:12:09.672Z,100191.66
2022-11-20T22:14:44.897Z,100189.16
2022-11-20T22:17:37.514Z,100190.09
2022-11-20T22:20:11.256Z,100190.09
2022-11-20T22:22:43.978Z,100198.75
2022-11-20T22:25:19.331Z,100199.50
2022-11-20T22:27:52.075Z,100196.03
2022-11-20T22:30:26.161Z,100210.19
2022-11-20T22:33:00.491Z,100218.78
2022-11-20T22:35:33.492Z,100245.13
2022-11-20T22:38:08.109Z,100245.34
2022-11-20T22:40:43.862Z,100251.50
2022-11-20T22:43:17.209Z,100239.09
2022-11-20T22:45:52.308Z,100217.06
2022-11-20T22:48:24.985Z,100210.13
2022-11-20T22:51:07.819Z,100213.38
2022-11-20T22:53:42.444Z,100213.56
2022-11-20T22:56:19.723Z,100209.28
2022-11-20T22:58:56.583Z,100221.78
2022-11-20T23:01:33.859Z,100224.41
2022-11-20T23:04:14.220Z,100225.97
2022-11-20T23:06:46.884Z,100231.31
2022-11-20T23:09:19.494Z,100237.53
2022-11-20T23:11:52.893Z,100261.19
2022-11-20T23:14:28.311Z,100299.19
2022-11-20T23:17:10.663Z,100287.78
2022-11-20T23:19:43.347Z,100280.59
2022-11-20T23:22:16.118Z,100280.75
2022-11-20T23:24:50.718Z,100269.41
2022-11-20T23:27:28.392Z,100272.88
2022-11-20T23:30:01.335Z,100271.78
2022-11-20T23:32:34.089Z,100272.03
2022-11-20T23:35:08.341Z,100274.56
2022-11-20T23:37:48.360Z,100271.75
2022-11-20T23:40:21.041Z,100271.63
2022-11-20T23:43:12.464Z,100280.44
2022-11-20T23:45:53.904Z,100271.88
2022-11-20T23:48:31.021Z,100290.31
2022-11-20T23:51:06.608Z,100283.38
2022-11-20T23:53:39.313Z,100276.25
2022-11-20T23:56:14.693Z,100275.38
2022-11-20T23:58:47.550Z,100266.56
